Flight Track Log - Related Links

Times and Time Zones

All times are in EDT time to prevent confusion due to time zone crossing. See the USC105 flight status page for this flight to view local times or setup timezone preferences in your user account.

Time Position Orientation Groundspeed Altitude Reporting Facility
EDT Latitude Longitude Course Direction KTS MPH feet Rate Location/Type
Tue 11:02:13 PM 41.5625 -81.7208 328° Northwest 134 154 2,500  Level Cleveland Center
Tue 11:03:20 PM 41.5892 -81.7631 310° West 151 174 3,100 269 Climbing Cleveland Center
Tue 11:04:27 PM 41.6050 -81.8300 288° West 171 197 3,100  Level Cleveland Center
Tue 11:05:27 PM 41.6147 -81.8939 282° West 169 194 3,100 298 Level Cleveland Center
Tue 11:06:28 PM 41.6244 -81.9553 282° West 170 196 3,700 738 Climbing Cleveland Center
Tue 11:07:29 PM 41.6300 -82.0083 278° West 135 155 4,600 661 Climbing Cleveland Center
Tue 11:08:35 PM 41.6333 -82.0722 274° West 153 176 5,100 236 Climbing Cleveland Center
Tue 11:09:36 PM 41.6325 -82.1361 269° West 177 204 5,100  Level Cleveland Center
Tue 11:10:30 PM 41.6297 -82.1972 267° West 178 205 5,100 209 Level Cleveland Center
Tue 11:11:31 PM 41.6581 -82.2533 304° West 193 222 5,500 492 Climbing Cleveland Center
Tue 11:12:32 PM 41.6842 -82.3097 302° West 172 198 6,100 298 Climbing Cleveland Center
Tue 11:13:32 PM 41.7125 -82.3661 304° West 189 217 6,100  Level Cleveland Center
Tue 11:14:33 PM 41.7450 -82.4283 305° West 200 230 6,100 -65 Level Cleveland Center
Tue 11:15:05 PM 41.7611 -82.4622 303° West 201 231 6,000 -61 Descending Cleveland Center
Tue 11:16:11 PM 41.7975 -82.5300 306° West 199 229 6,000  Level Cleveland Center
Tue 11:17:12 PM 41.8256 -82.5950 300° West 199 229 6,000 -50 Level Cleveland Center
Tue 11:18:12 PM 41.8683 -82.6439 320° Northwest 208 239 5,900  Descending Cleveland Center
Tue 11:19:13 PM 41.9094 -82.6842 324° Northwest 193 222 6,000 49 Climbing Cleveland Center
Tue 11:20:14 PM 41.9081 -82.7539 268° West 191 220 6,000  Level Cleveland Center
Tue 11:21:14 PM 41.9108 -82.8236 273° West 188 216 6,000  Level Cleveland Center
Tue 11:22:15 PM 41.9136 -82.8936 273° West 187 215 6,000  Level Cleveland Center
Tue 11:23:16 PM 41.9142 -82.9689 271° West 186 214 6,000  Level Cleveland Center
Tue 11:24:16 PM 41.9169 -83.0361 273° West 187 215 6,000  Level Cleveland Center
Tue 11:25:17 PM 41.9156 -83.1058 268° West 188 216 6,000 -298 Level Cleveland Center
Tue 11:26:17 PM 41.9158 -83.1839 270° West 210 242 5,400 -614 Descending Cleveland Center
Tue 11:27:24 PM 41.9181 -83.2650 272° West 202 232 4,700 -797 Descending Cleveland Center
Tue 11:28:25 PM 41.9392 -83.3439 290° West 224 258 3,700 -893 Descending Cleveland Center
Tue 11:29:25 PM 41.9689 -83.4094 301° West 211 243 2,900 -347 Descending Cleveland Center
Tue 11:30:26 PM 41.9922 -83.4747 296° West 187 215 3,000 99 Climbing Cleveland Center
Tue 11:31:26 PM 42.0200 -83.5347 302° West 179 206 3,100 50 Climbing Cleveland Center
Tue 11:32:27 PM 42.0564 -83.5783 318° Northwest 173 199 3,100 -344 Level Cleveland Center
Tue 11:33:28 PM 42.0883 -83.6275 311° West 191 220 2,400 -472 Descending Cleveland Center
Tue 11:34:34 PM 42.1406 -83.6300 358° North 161 185 2,100 -298 Descending Cleveland Center
Tue 11:35:29 PM 42.1783 -83.6150 16° North 161 185 1,800 -310 Descending Cleveland Center
Tue 11:36:30 PM 42.2064 -83.5800 43° Northeast 124 143 1,500 -295 Descending Cleveland Center
Tue 11:38:00 PM 42.2393 -83.5310 87° East  Level Estimated
Tue 11:45:00 PM 42.2393 -83.5310 90° East  Level Estimated
Tue 11:46:00 PM 42.2393 -83.5310 90° East  Level Estimated

Login

Don't have an account? Register now (free) for customized features, flight alerts, and more!